Time;durP1;ratioP1;P1;durP2;ratioP2;P2;SDS_P1;SDS_P2;PMS_P1;PMS_P2;Temp;Humidity;BMP_temperature;BMP_pressure;BME280_temperature;BME280_humidity;BME280_pressure;Samples;Min_cycle;Max_cycle;Signal;HPM_P1;HPM_P2
2022/09/06 00:00:39;;;;;;;2.00;1.80;;;25.30;63.70;;;;;;4997981;28;20535;-22
2022/09/06 00:03:05;;;;;;;2.25;2.05;;;25.20;63.50;;;;;;5007300;28;20116;-23
2022/09/06 00:05:31;;;;;;;2.45;2.30;;;25.20;63.50;;;;;;5003119;28;20050;-24
2022/09/06 00:08:00;;;;;;;2.15;2.00;;;25.20;63.90;;;;;;5002590;28;20487;-24
2022/09/06 00:10:26;;;;;;;2.00;1.90;;;25.20;64.00;;;;;;4999824;28;20497;-21
2022/09/06 00:12:52;;;;;;;1.90;1.80;;;25.10;64.00;;;;;;4998564;28;20483;-29
2022/09/06 00:15:18;;;;;;;1.75;1.65;;;25.10;64.00;;;;;;4996277;28;20175;-23
2022/09/06 00:17:44;;;;;;;2.17;2.03;;;25.10;64.00;;;;;;4996077;28;20129;-30
2022/09/06 00:20:09;;;;;;;2.30;2.10;;;25.10;64.10;;;;;;5002460;28;20539;-27
2022/09/06 00:22:36;;;;;;;2.25;2.15;;;25.10;64.20;;;;;;5011599;28;20421;-22
2022/09/06 00:25:03;;;;;;;2.08;1.98;;;25.10;64.10;;;;;;4996615;28;20038;-22
2022/09/06 00:27:28;;;;;;;2.30;2.10;;;25.00;64.20;;;;;;4997392;28;20052;-24
2022/09/06 00:29:54;;;;;;;2.05;1.95;;;25.00;64.30;;;;;;4997610;28;20420;-22
2022/09/06 00:32:20;;;;;;;2.53;2.17;;;25.00;65.30;;;;;;5002256;28;20049;-26
2022/09/06 00:34:45;;;;;;;1.83;1.73;;;25.00;64.40;;;;;;4995353;28;20034;-22
2022/09/06 00:37:11;;;;;;;2.17;1.98;;;25.00;64.30;;;;;;5010464;28;20060;-25
2022/09/06 00:39:36;;;;;;;1.60;1.50;;;25.00;64.30;;;;;;5009430;28;20047;-21
2022/09/06 00:42:06;;;;;;;1.73;1.63;;;25.00;64.20;;;;;;4999593;28;20528;-23
2022/09/06 00:44:31;;;;;;;1.80;1.70;;;25.00;64.20;;;;;;4995757;28;20053;-21
2022/09/06 00:46:57;;;;;;;2.20;2.10;;;25.00;64.20;;;;;;5001742;28;20053;-26
2022/09/06 00:49:28;;;;;;;2.17;2.05;;;24.90;64.50;;;;;;5000481;28;20046;-22
2022/09/06 00:51:58;;;;;;;1.83;1.73;;;25.00;64.40;;;;;;4994570;28;20114;-26
2022/09/06 00:54:24;;;;;;;1.80;1.70;;;25.00;64.20;;;;;;4982099;28;20050;-54
2022/09/06 00:56:49;;;;;;;1.98;1.88;;;25.10;64.30;;;;;;5018823;28;20066;-62
2022/09/06 00:59:15;;;;;;;2.10;1.67;;;25.00;64.20;;;;;;4997115;28;20050;-61
2022/09/06 01:01:41;;;;;;;1.98;1.83;;;25.00;64.20;;;;;;4997117;28;20606;-62
2022/09/06 01:04:06;;;;;;;1.92;1.80;;;25.00;64.20;;;;;;4995750;28;20045;-58
2022/09/06 01:06:42;;;;;;;1.73;1.63;;;25.00;64.20;;;;;;5002497;28;20130;-58
2022/09/06 01:09:46;;;;;;;1.90;1.80;;;25.00;64.30;;;;;;4994410;28;20066;-60
2022/09/06 01:12:11;;;;;;;1.95;1.85;;;25.00;64.20;;;;;;4998062;28;20057;-58
2022/09/06 01:14:55;;;;;;;1.73;1.63;;;25.00;64.30;;;;;;5017715;28;20037;-62
2022/09/06 01:17:29;;;;;;;1.63;1.52;;;25.00;64.20;;;;;;5015698;28;20053;-54
2022/09/06 01:20:13;;;;;;;2.13;2.03;;;24.90;64.50;;;;;;4998293;28;20038;-58
2022/09/06 01:22:42;;;;;;;2.78;1.50;;;24.90;64.60;;;;;;5010845;28;20527;-58
2022/09/06 01:25:42;;;;;;;1.73;1.63;;;24.90;64.60;;;;;;4997685;28;20492;-62
2022/09/06 01:28:24;;;;;;;2.05;1.85;;;24.90;64.40;;;;;;5063969;28;20128;-61
2022/09/06 01:31:07;;;;;;;1.63;1.52;;;24.90;64.60;;;;;;5060671;28;20044;-61
2022/09/06 01:33:55;;;;;;;1.65;1.55;;;24.90;64.60;;;;;;5047197;28;20670;-55
2022/09/06 01:36:23;;;;;;;1.85;1.60;;;24.90;64.40;;;;;;5043845;28;20158;-56
2022/09/06 01:38:49;;;;;;;1.63;1.52;;;24.90;64.60;;;;;;5045122;28;20056;-50
2022/09/06 01:41:14;;;;;;;1.77;1.67;;;24.90;64.60;;;;;;5062860;28;20539;-54
2022/09/06 01:43:40;;;;;;;1.63;1.52;;;24.90;64.40;;;;;;5060631;28;20102;-60
2022/09/06 01:46:30;;;;;;;1.65;1.55;;;24.90;64.50;;;;;;5062922;28;20052;-56
2022/09/06 01:49:08;;;;;;;1.80;1.70;;;24.90;64.50;;;;;;5044475;28;20158;-57
2022/09/06 01:51:52;;;;;;;1.80;1.70;;;24.90;64.50;;;;;;5059498;28;20056;-54
2022/09/06 01:54:36;;;;;;;1.58;1.48;;;24.90;64.30;;;;;;5061412;28;20134;-51
2022/09/06 01:57:07;;;;;;;;;;;24.90;64.50;;;;;;5062587;28;20083;-62
2022/09/06 01:59:35;;;;;;;1.70;1.15;;;24.80;64.50;;;;;;5064899;28;19920;-60
2022/09/06 02:02:02;;;;;;;1.23;1.00;;;24.90;64.50;;;;;;5063380;28;20040;-56
2022/09/06 02:04:49;;;;;;;1.42;1.33;;;24.90;64.60;;;;;;5014059;28;20103;-56
2022/09/06 02:07:21;;;;;;;1.95;1.85;;;24.80;64.60;;;;;;5002849;28;20050;-55
2022/09/06 02:09:58;;;;;;;1.20;1.10;;;24.90;64.60;;;;;;5004252;28;20091;-55
2022/09/06 02:12:24;;;;;;;1.42;1.30;;;24.90;65.30;;;;;;4979422;28;20034;-59
2022/09/06 02:15:01;;;;;;;1.20;1.10;;;24.90;64.40;;;;;;5004720;28;20084;-50
2022/09/06 02:17:30;;;;;;;2.38;1.38;;;24.90;64.60;;;;;;5000008;28;20519;-53
2022/09/06 02:20:04;;;;;;;1.40;1.30;;;24.80;64.50;;;;;;5014631;28;20131;-55
2022/09/06 02:22:32;;;;;;;1.30;1.27;;;24.90;64.50;;;;;;4993798;28;20108;-56
2022/09/06 02:24:58;;;;;;;1.38;1.27;;;24.80;64.60;;;;;;4994348;28;20445;-62
2022/09/06 02:27:24;;;;;;;1.08;1.00;;;24.80;64.70;;;;;;5012569;28;20133;-57
2022/09/06 02:29:49;;;;;;;1.30;1.20;;;24.80;64.80;;;;;;5011497;28;20576;-53
2022/09/06 02:32:24;;;;;;;1.40;1.30;;;24.80;64.80;;;;;;5004309;28;20046;-47
2022/09/06 02:34:51;;;;;;;1.25;1.15;;;24.80;64.60;;;;;;5000396;28;20141;-57
2022/09/06 02:37:16;;;;;;;1.45;1.35;;;24.90;64.60;;;;;;4995793;28;20125;-49
2022/09/06 02:39:42;;;;;;;1.38;1.27;;;24.80;64.60;;;;;;5016996;28;20523;-50
2022/09/06 02:42:08;;;;;;;1.35;1.23;;;24.80;64.60;;;;;;5018357;28;20050;-61
2022/09/06 02:44:34;;;;;;;1.50;1.30;;;24.80;64.50;;;;;;4996411;28;20060;-54
2022/09/06 02:47:01;;;;;;;1.30;1.20;;;24.80;64.60;;;;;;5000360;28;20042;-59
2022/09/06 02:49:27;;;;;;;1.20;1.10;;;24.80;64.50;;;;;;5001813;28;20052;-62
2022/09/06 02:51:53;;;;;;;1.30;1.23;;;24.80;64.60;;;;;;4996565;28;20076;-57
2022/09/06 02:54:18;;;;;;;1.27;1.17;;;24.80;64.60;;;;;;4999237;28;20480;-60
2022/09/06 02:56:44;;;;;;;1.30;1.20;;;24.80;64.70;;;;;;5001735;28;20056;-61
2022/09/06 02:59:09;;;;;;;1.63;1.30;;;24.70;64.60;;;;;;5002954;28;20516;-60
2022/09/06 03:01:35;;;;;;;1.58;1.27;;;24.70;64.70;;;;;;4997041;28;20046;-54
2022/09/06 03:04:01;;;;;;;0.77;0.77;;;24.80;64.70;;;;;;5001733;28;20102;-58
2022/09/06 03:06:26;;;;;;;1.40;1.30;;;24.80;64.70;;;;;;4994871;28;20086;-56
2022/09/06 03:08:52;;;;;;;1.40;1.30;;;24.80;64.70;;;;;;4999467;28;20153;-55
2022/09/06 03:11:17;;;;;;;1.02;0.95;;;24.80;64.70;;;;;;5019605;28;20030;-59
2022/09/06 03:13:43;;;;;;;1.30;1.08;;;24.80;64.80;;;;;;4998791;28;20093;-53
2022/09/06 03:16:08;;;;;;;0.80;0.80;;;24.80;64.80;;;;;;5017213;28;20046;-49
2022/09/06 03:18:34;;;;;;;1.35;1.17;;;24.70;64.60;;;;;;5009722;28;20061;-50
2022/09/06 03:21:00;;;;;;;1.10;1.00;;;24.70;64.60;;;;;;4998579;28;20417;-50
2022/09/06 03:23:26;;;;;;;0.85;0.80;;;24.70;64.60;;;;;;4997251;28;20061;-54
2022/09/06 03:25:52;;;;;;;1.10;1.00;;;24.70;64.60;;;;;;5013983;28;20042;-56
2022/09/06 03:28:18;;;;;;;0.90;0.90;;;24.70;64.60;;;;;;5011178;28;20519;-60
2022/09/06 03:30:44;;;;;;;1.10;1.10;;;24.70;64.60;;;;;;5012754;28;20034;-51
2022/09/06 03:33:10;;;;;;;1.08;1.08;;;24.70;64.70;;;;;;5001159;28;20076;-54
2022/09/06 03:35:35;;;;;;;1.75;1.65;;;24.70;64.80;;;;;;4995369;28;20473;-55
2022/09/06 03:38:01;;;;;;;1.20;1.10;;;24.70;64.70;;;;;;5002214;28;20091;-50
2022/09/06 03:40:26;;;;;;;1.02;0.93;;;24.70;64.60;;;;;;5001591;28;20042;-53
2022/09/06 03:42:52;;;;;;;1.05;1.02;;;24.70;64.70;;;;;;4999659;28;20102;-58
2022/09/06 03:45:17;;;;;;;1.02;1.00;;;24.70;64.70;;;;;;4995041;28;20070;-48
2022/09/06 03:47:43;;;;;;;1.20;0.93;;;24.70;64.70;;;;;;4998130;28;20416;-50
2022/09/06 03:50:09;;;;;;;1.00;1.00;;;24.70;64.60;;;;;;5000405;28;20045;-63
2022/09/06 03:52:34;;;;;;;0.90;0.90;;;24.70;65.50;;;;;;5003482;28;20397;-62
2022/09/06 03:55:00;;;;;;;1.15;1.05;;;24.70;64.60;;;;;;5021254;28;20034;-58
2022/09/06 03:57:25;;;;;;;1.13;0.90;;;24.70;64.60;;;;;;5007419;28;20468;-58
2022/09/06 03:59:51;;;;;;;0.90;0.90;;;24.70;64.60;;;;;;4999210;28;20038;-53
2022/09/06 04:02:16;;;;;;;0.82;0.82;;;24.70;64.60;;;;;;5000957;28;20042;-54
2022/09/06 04:04:42;;;;;;;0.80;0.80;;;24.70;64.70;;;;;;4996133;28;20508;-53
2022/09/06 04:07:07;;;;;;;1.00;0.85;;;24.70;64.70;;;;;;5010129;28;20054;-49
2022/09/06 04:09:33;;;;;;;0.77;0.77;;;24.70;65.50;;;;;;4997205;28;20079;-49
2022/09/06 04:11:59;;;;;;;1.02;0.90;;;24.70;64.60;;;;;;5007264;28;20853;-55
2022/09/06 04:14:24;;;;;;;1.08;1.00;;;24.70;64.60;;;;;;4995956;28;20045;-54
2022/09/06 04:16:51;;;;;;;0.77;0.77;;;24.70;64.60;;;;;;5012481;28;20508;-55
2022/09/06 04:19:16;;;;;;;0.70;0.68;;;24.70;64.70;;;;;;4999767;28;20058;-54
2022/09/06 04:21:42;;;;;;;0.80;0.80;;;24.70;64.80;;;;;;5002294;28;20045;-49
2022/09/06 04:24:07;;;;;;;0.77;0.77;;;24.70;64.80;;;;;;5001561;28;20420;-57
2022/09/06 04:26:33;;;;;;;0.80;0.80;;;24.70;64.70;;;;;;4999090;28;20030;-57
2022/09/06 04:28:59;;;;;;;1.23;1.02;;;24.70;64.60;;;;;;4998606;28;20042;-54
2022/09/06 04:31:25;;;;;;;0.65;0.65;;;24.60;64.70;;;;;;5001973;28;20492;-49
2022/09/06 04:33:50;;;;;;;1.02;0.80;;;24.70;64.70;;;;;;5005735;28;20173;-52
2022/09/06 04:36:16;;;;;;;0.68;0.65;;;24.70;64.70;;;;;;4997916;28;20289;-49
2022/09/06 04:38:42;;;;;;;0.73;0.73;;;24.70;64.60;;;;;;4995045;28;20042;-50
2022/09/06 04:41:09;;;;;;;0.88;0.85;;;24.60;64.60;;;;;;5000548;28;20454;-55
2022/09/06 04:43:34;;;;;;;1.05;0.90;;;24.70;64.80;;;;;;4994718;28;20167;-46
2022/09/06 04:46:16;;;;;;;0.85;0.70;;;24.60;64.70;;;;;;4997829;28;20058;-54
2022/09/06 04:48:42;;;;;;;0.90;0.88;;;24.60;64.70;;;;;;4980479;28;20509;-50
2022/09/06 04:51:07;;;;;;;0.90;0.80;;;24.70;64.70;;;;;;4995639;28;20054;-50
2022/09/06 04:53:33;;;;;;;1.45;1.00;;;24.70;64.60;;;;;;5012023;28;20523;-50
2022/09/06 04:55:58;;;;;;;0.65;0.65;;;24.60;64.70;;;;;;4995259;28;20043;-53
2022/09/06 04:58:24;;;;;;;0.70;0.63;;;24.60;64.60;;;;;;4999805;28;20119;-48
2022/09/06 05:00:50;;;;;;;0.75;0.70;;;24.70;64.70;;;;;;4996688;28;20062;-49
2022/09/06 05:03:16;;;;;;;3.55;1.02;;;24.60;64.80;;;;;;4996732;28;20469;-50
2022/09/06 05:05:41;;;;;;;0.70;0.70;;;24.60;64.80;;;;;;4993547;28;20511;-52
2022/09/06 05:08:07;;;;;;;1.02;0.60;;;24.60;64.70;;;;;;5004425;28;20091;-57
2022/09/06 05:10:33;;;;;;;0.70;0.70;;;24.60;64.70;;;;;;4996380;28;20083;-55
2022/09/06 05:12:58;;;;;;;0.70;0.70;;;24.60;64.80;;;;;;4995002;28;20501;-56
2022/09/06 05:15:24;;;;;;;0.60;0.60;;;24.60;64.90;;;;;;4994217;28;20070;-63
2022/09/06 05:17:50;;;;;;;0.80;0.80;;;24.60;65.20;;;;;;5003209;28;20094;-63
2022/09/06 05:20:16;;;;;;;2.03;1.05;;;24.60;65.20;;;;;;4993176;28;20046;-52
2022/09/06 05:22:41;;;;;;;1.40;1.15;;;24.60;66.10;;;;;;4644175;28;10000198;-56
2022/09/06 05:25:08;;;;;;;1.38;1.27;;;24.60;66.60;;;;;;4994423;28;20128;-53
2022/09/06 05:27:33;;;;;;;1.10;1.00;;;24.60;66.60;;;;;;5000768;28;20125;-51
2022/09/06 05:29:59;;;;;;;1.25;0.90;;;24.60;66.30;;;;;;4994107;28;20478;-54
2022/09/06 05:32:24;;;;;;;1.38;1.10;;;24.60;66.70;;;;;;4996924;28;20042;-53
2022/09/06 05:34:50;;;;;;;4.28;1.00;;;24.60;67.20;;;;;;4994320;28;20062;-49
2022/09/06 05:37:15;;;;;;;3.17;0.93;;;24.60;66.70;;;;;;4998677;28;20117;-51
2022/09/06 05:39:41;;;;;;;2.45;1.00;;;24.60;66.40;;;;;;5000851;28;20503;-57
2022/09/06 05:42:06;;;;;;;1.50;1.10;;;24.60;66.40;;;;;;4994241;28;20042;-54
2022/09/06 05:44:36;;;;;;;1.50;1.20;;;24.60;66.90;;;;;;4996237;28;20050;-63
2022/09/06 05:47:01;;;;;;;4.13;1.38;;;24.60;66.70;;;;;;4995762;28;20053;-51
2022/09/06 05:49:30;;;;;;;2.70;0.85;;;24.60;67.10;;;;;;5003180;28;20045;-59
2022/09/06 05:51:56;;;;;;;2.55;0.70;;;24.70;66.50;;;;;;4995986;28;20048;-59
2022/09/06 05:54:22;;;;;;;1.80;0.70;;;24.40;66.90;;;;;;4998712;28;20053;-54
2022/09/06 05:56:47;;;;;;;1.15;0.98;;;24.20;67.50;;;;;;4995958;28;20518;-62
2022/09/06 05:59:13;;;;;;;1.23;1.00;;;24.20;67.60;;;;;;4998792;28;20046;-51
2022/09/06 06:01:49;;;;;;;2.33;1.55;;;24.20;67.70;;;;;;4998061;28;20042;-57
2022/09/06 06:04:15;;;;;;;1.42;0.95;;;24.10;67.90;;;;;;4995414;28;20037;-55
2022/09/06 06:06:40;;;;;;;2.00;1.08;;;24.00;67.90;;;;;;4997126;28;20065;-55
2022/09/06 06:09:06;;;;;;;1.58;1.10;;;24.10;67.90;;;;;;5004930;28;20140;-56
2022/09/06 06:11:32;;;;;;;1.33;1.00;;;24.10;67.50;;;;;;5005185;28;20493;-48
2022/09/06 06:14:00;;;;;;;2.35;1.27;;;24.10;67.30;;;;;;4997823;28;20045;-62
2022/09/06 06:16:26;;;;;;;2.70;1.10;;;24.00;67.60;;;;;;5003484;28;20047;-58
2022/09/06 06:18:51;;;;;;;4.18;1.02;;;24.00;67.50;;;;;;4997891;28;20046;-58
2022/09/06 06:21:21;;;;;;;1.30;0.90;;;24.10;67.20;;;;;;5001057;28;20050;-61
2022/09/06 06:23:49;;;;;;;1.10;0.75;;;24.30;66.90;;;;;;5003066;28;20052;-54
2022/09/06 06:26:15;;;;;;;1.38;0.73;;;24.30;66.70;;;;;;5018894;28;20561;-56
2022/09/06 06:28:40;;;;;;;3.80;0.90;;;24.40;66.60;;;;;;4997382;28;20042;-57
2022/09/06 06:31:07;;;;;;;3.05;0.90;;;24.40;66.40;;;;;;5004262;28;20072;-56
2022/09/06 06:33:32;;;;;;;2.10;0.70;;;24.40;66.40;;;;;;4997454;28;20037;-52
2022/09/06 06:36:02;;;;;;;1.08;0.73;;;24.40;66.20;;;;;;4998082;28;20041;-61
2022/09/06 06:38:36;;;;;;;0.77;0.60;;;24.50;66.30;;;;;;5005037;28;20030;-59
2022/09/06 06:41:02;;;;;;;1.17;1.08;;;24.40;66.20;;;;;;4998199;28;20057;-54
2022/09/06 06:43:28;;;;;;;1.02;0.80;;;24.40;66.10;;;;;;5016040;28;20507;-54
2022/09/06 06:45:54;;;;;;;1.20;0.80;;;24.40;66.30;;;;;;5004452;28;20098;-58
2022/09/06 06:48:20;;;;;;;0.98;0.65;;;24.40;66.20;;;;;;4998019;28;20099;-57
2022/09/06 06:50:45;;;;;;;0.95;0.70;;;24.40;66.00;;;;;;5002976;28;20050;-57
2022/09/06 06:53:11;;;;;;;1.05;0.70;;;24.40;66.10;;;;;;4998186;28;20095;-56
2022/09/06 06:55:37;;;;;;;1.83;0.60;;;24.50;66.00;;;;;;5019151;28;20093;-52
2022/09/06 06:58:03;;;;;;;1.23;0.63;;;24.40;66.00;;;;;;5009018;28;20049;-43
2022/09/06 07:00:28;;;;;;;0.95;0.88;;;24.50;65.90;;;;;;5007474;28;20038;-52
2022/09/06 07:02:55;;;;;;;0.90;0.70;;;24.40;65.90;;;;;;4999746;28;20052;-53
2022/09/06 07:05:23;;;;;;;2.60;0.73;;;24.40;65.90;;;;;;5006698;28;20411;-54
2022/09/06 07:07:49;;;;;;;0.88;0.80;;;24.40;65.90;;;;;;4999516;28;20134;-51
2022/09/06 07:10:15;;;;;;;1.48;0.68;;;24.50;65.90;;;;;;4999281;28;20129;-45
2022/09/06 07:12:40;;;;;;;0.70;0.70;;;24.50;65.90;;;;;;4999784;28;20562;-50
2022/09/06 07:15:06;;;;;;;0.70;0.70;;;24.40;65.80;;;;;;4996322;28;20042;-47
2022/09/06 07:17:33;;;;;;;0.80;0.70;;;24.40;65.80;;;;;;4998179;28;20038;-42
2022/09/06 07:19:59;;;;;;;1.27;0.90;;;24.40;66.00;;;;;;4997297;28;20038;-46
2022/09/06 07:22:24;;;;;;;0.68;0.68;;;24.40;65.90;;;;;;5000941;28;20390;-46
2022/09/06 07:24:50;;;;;;;1.58;0.85;;;24.40;65.70;;;;;;4995589;28;20218;-51
2022/09/06 07:27:16;;;;;;;1.70;0.70;;;24.50;65.60;;;;;;4998069;28;20049;-40
2022/09/06 07:29:41;;;;;;;1.13;0.60;;;24.60;65.30;;;;;;4999081;28;20051;-42
2022/09/06 07:32:07;;;;;;;1.20;0.55;;;24.70;64.80;;;;;;4999116;28;20050;-51
2022/09/06 07:34:36;;;;;;;1.30;0.70;;;24.80;64.40;;;;;;5000203;28;20524;-41
2022/09/06 07:37:02;;;;;;;2.63;0.70;;;25.00;63.90;;;;;;4994526;28;20527;-43
2022/09/06 07:39:27;;;;;;;0.57;0.57;;;24.90;64.10;;;;;;4999768;28;20050;-45
2022/09/06 07:41:53;;;;;;;1.58;0.85;;;24.80;64.50;;;;;;4993111;28;20038;-45
2022/09/06 07:44:18;;;;;;;1.10;0.60;;;24.70;64.60;;;;;;5000710;28;20528;-53
2022/09/06 07:46:44;;;;;;;1.10;0.68;;;24.70;64.80;;;;;;5000231;28;20053;-52
2022/09/06 07:49:09;;;;;;;1.13;0.70;;;24.70;64.80;;;;;;4997908;28;20741;-43
2022/09/06 07:51:35;;;;;;;0.50;0.40;;;24.60;64.80;;;;;;4997376;28;20049;-48
2022/09/06 07:54:01;;;;;;;0.85;0.57;;;24.60;64.80;;;;;;4997251;28;20050;-42
2022/09/06 07:56:26;;;;;;;0.47;0.40;;;24.60;64.90;;;;;;5001516;28;20045;-42
2022/09/06 07:58:52;;;;;;;0.80;0.50;;;24.60;64.90;;;;;;4999055;28;20565;-46
2022/09/06 08:01:33;;;;;;;0.80;0.50;;;24.60;65.00;;;;;;4996116;28;20048;-52
2022/09/06 08:04:09;;;;;;;0.70;0.50;;;24.60;65.00;;;;;;4995390;28;20050;-49
2022/09/06 08:06:36;;;;;;;0.68;0.60;;;24.60;64.90;;;;;;4997414;28;20464;-42
2022/09/06 08:09:02;;;;;;;1.05;0.70;;;24.60;65.00;;;;;;4997083;28;20076;-39
2022/09/06 08:11:29;;;;;;;1.33;0.80;;;24.60;65.00;;;;;;4995857;28;20057;-44
2022/09/06 08:13:55;;;;;;;0.60;0.45;;;24.60;65.90;;;;;;5000377;28;20054;-40
2022/09/06 08:16:22;;;;;;;0.63;0.55;;;24.60;65.10;;;;;;4997325;28;20052;-41
2022/09/06 08:18:51;;;;;;;0.70;0.50;;;24.60;65.00;;;;;;4994276;28;20053;-42
2022/09/06 08:21:16;;;;;;;2.35;0.60;;;24.50;64.90;;;;;;5000622;28;20050;-41
2022/09/06 08:23:47;;;;;;;0.80;0.52;;;24.60;65.00;;;;;;4996450;28;20056;-46
2022/09/06 08:26:16;;;;;;;0.98;0.68;;;24.60;65.10;;;;;;5002621;28;20045;-46
2022/09/06 08:28:42;;;;;;;0.55;0.50;;;24.50;65.00;;;;;;4996408;28;20059;-40
2022/09/06 08:31:12;;;;;;;0.60;0.60;;;24.50;65.00;;;;;;5001442;28;20096;-47
2022/09/06 08:33:38;;;;;;;1.63;0.65;;;24.50;65.20;;;;;;4994558;28;20607;-51
2022/09/06 08:36:04;;;;;;;0.77;0.60;;;24.40;65.10;;;;;;4994266;28;20125;-41
2022/09/06 08:38:29;;;;;;;1.10;0.30;;;24.50;65.00;;;;;;5000763;28;20034;-41
2022/09/06 08:41:08;;;;;;;0.70;0.50;;;24.50;65.10;;;;;;5000036;28;20054;-44
2022/09/06 08:43:34;;;;;;;0.70;0.57;;;24.50;65.10;;;;;;4995004;28;20045;-43
2022/09/06 08:46:00;;;;;;;0.60;0.60;;;24.50;65.10;;;;;;4995660;28;20042;-51
2022/09/06 08:48:28;;;;;;;1.30;0.40;;;24.60;65.80;;;;;;5000174;28;20060;-41
2022/09/06 08:51:06;;;;;;;0.45;0.40;;;24.50;65.00;;;;;;4995107;28;20041;-45
2022/09/06 08:53:32;;;;;;;0.93;0.70;;;24.60;65.00;;;;;;4994830;28;20042;-41
2022/09/06 08:56:17;;;;;;;0.88;0.55;;;24.50;65.00;;;;;;4994757;28;20417;-40
2022/09/06 08:59:01;;;;;;;0.60;0.50;;;24.50;65.00;;;;;;5012368;28;20657;-40
2022/09/06 09:01:31;;;;;;;0.68;0.50;;;24.50;65.00;;;;;;4978840;28;20103;-40
2022/09/06 09:03:57;;;;;;;1.13;0.75;;;24.50;65.00;;;;;;4998946;28;20059;-42
2022/09/06 09:06:22;;;;;;;1.00;0.60;;;24.50;65.10;;;;;;4997994;28;20054;-48
2022/09/06 09:09:04;;;;;;;0.60;0.40;;;24.50;65.10;;;;;;4994845;28;20134;-49
2022/09/06 09:11:32;;;;;;;0.60;0.47;;;24.50;65.20;;;;;;4997396;28;20116;-44
2022/09/06 09:14:05;;;;;;;0.70;0.50;;;24.40;65.30;;;;;;4998034;28;20061;-48
2022/09/06 09:16:30;;;;;;;0.65;0.47;;;24.40;65.30;;;;;;5013742;28;20736;-45
2022/09/06 09:18:59;;;;;;;0.80;0.50;;;24.50;65.30;;;;;;5000636;28;20046;-43
2022/09/06 09:21:27;;;;;;;0.65;0.47;;;24.40;66.10;;;;;;4999205;28;20042;-53
2022/09/06 09:23:54;;;;;;;1.08;0.57;;;24.40;65.40;;;;;;4993727;28;20096;-44
2022/09/06 09:26:19;;;;;;;0.47;0.47;;;24.50;65.30;;;;;;4997336;28;20509;-41
2022/09/06 09:29:11;;;;;;;2.13;0.70;;;24.50;65.10;;;;;;4995519;28;20132;-46
2022/09/06 09:31:41;;;;;;;0.57;0.50;;;24.50;65.00;;;;;;5000898;28;20044;-45
2022/09/06 09:34:26;;;;;;;0.60;0.47;;;24.50;65.10;;;;;;4993190;28;20051;-46
2022/09/06 09:37:14;;;;;;;0.52;0.52;;;24.50;65.10;;;;;;4992313;28;20235;-42
2022/09/06 09:39:39;;;;;;;0.50;0.40;;;24.50;65.10;;;;;;4995876;28;20042;-44
2022/09/06 09:42:06;;;;;;;0.60;0.60;;;24.50;65.20;;;;;;5000513;28;20046;-41
2022/09/06 09:44:31;;;;;;;0.30;0.30;;;24.50;65.00;;;;;;4999077;28;20072;-48
2022/09/06 09:46:57;;;;;;;0.30;0.30;;;24.50;65.00;;;;;;4982969;28;20560;-42
2022/09/06 09:49:23;;;;;;;0.70;0.50;;;24.50;65.00;;;;;;5001079;28;20038;-46
2022/09/06 09:52:10;;;;;;;0.45;0.40;;;24.50;65.00;;;;;;4998841;28;20588;-46
2022/09/06 09:54:37;;;;;;;0.70;0.70;;;24.50;65.10;;;;;;4998389;28;20046;-44
2022/09/06 09:57:21;;;;;;;0.60;0.45;;;24.50;65.00;;;;;;4998621;28;20167;-45
2022/09/06 10:00:05;;;;;;;0.30;0.30;;;24.50;65.00;;;;;;4996880;28;20042;-46
2022/09/06 10:02:34;;;;;;;0.50;0.50;;;24.50;65.10;;;;;;4999872;28;20053;-41
2022/09/06 10:05:06;;;;;;;0.40;0.40;;;24.50;65.10;;;;;;4997999;28;20527;-42
2022/09/06 10:07:32;;;;;;;0.63;0.40;;;24.40;65.00;;;;;;5001254;28;20124;-59
2022/09/06 10:10:01;;;;;;;0.65;0.43;;;24.40;65.10;;;;;;4981949;28;20128;-57
2022/09/06 10:12:37;;;;;;;0.50;0.50;;;24.40;65.10;;;;;;4997615;28;20053;-54
2022/09/06 10:15:04;;;;;;;0.30;0.30;;;24.50;65.10;;;;;;4994446;28;20049;-41
2022/09/06 10:17:30;;;;;;;0.32;0.32;;;24.40;65.00;;;;;;4997621;28;20047;-50
2022/09/06 10:20:03;;;;;;;0.35;0.35;;;24.50;64.90;;;;;;5001720;28;20404;-46
2022/09/06 10:22:29;;;;;;;0.40;0.40;;;24.50;65.00;;;;;;5003926;28;20049;-42
2022/09/06 10:25:40;;;;;;;0.50;0.50;;;24.40;65.10;;;;;;4997576;28;20084;-50
2022/09/06 10:28:30;;;;;;;0.52;0.43;;;24.40;65.10;;;;;;5022420;28;20057;-52
2022/09/06 10:31:33;;;;;;;0.47;0.40;;;24.40;65.20;;;;;;4651115;28;10001231;-42
2022/09/06 10:34:08;;;;;;;0.80;0.50;;;24.40;65.30;;;;;;4993464;28;20050;-50
2022/09/06 10:36:38;;;;;;;0.50;0.43;;;24.40;65.30;;;;;;4995224;28;20034;-47
2022/09/06 10:39:29;;;;;;;0.35;0.35;;;24.40;65.20;;;;;;4994187;28;20076;-55
2022/09/06 10:42:10;;;;;;;0.22;0.22;;;24.40;65.40;;;;;;4991558;28;20046;-42
2022/09/06 10:44:41;;;;;;;0.80;0.50;;;24.40;65.40;;;;;;4993792;28;20050;-52
2022/09/06 10:47:13;;;;;;;0.40;0.32;;;24.40;65.20;;;;;;4996364;28;20050;-45
2022/09/06 10:49:43;;;;;;;0.70;0.40;;;24.40;65.10;;;;;;4994473;28;20129;-57
2022/09/06 10:52:11;;;;;;;0.55;0.30;;;24.40;65.30;;;;;;4996196;28;20181;-43
2022/09/06 10:54:39;;;;;;;0.30;0.30;;;24.40;65.20;;;;;;5002942;28;20058;-47
2022/09/06 10:57:22;;;;;;;0.47;0.27;;;24.40;65.10;;;;;;4637352;28;10000817;-49
2022/09/06 10:59:59;;;;;;;0.43;0.30;;;24.40;65.20;;;;;;5049102;27;20122;-48
2022/09/06 11:02:46;;;;;;;0.57;0.40;;;24.40;65.20;;;;;;4997652;28;20057;-42
2022/09/06 11:05:21;;;;;;;0.40;0.30;;;24.40;65.10;;;;;;4998097;28;20116;-47
2022/09/06 11:07:51;;;;;;;0.57;0.57;;;24.40;65.20;;;;;;4995472;28;20197;-46
2022/09/06 11:10:26;;;;;;;0.70;0.45;;;24.40;65.20;;;;;;4993119;28;20049;-44
2022/09/06 11:13:10;;;;;;;0.28;0.20;;;24.50;65.10;;;;;;5006585;28;20048;-50
2022/09/06 11:15:55;;;;;;;;;;;24.50;65.20;;;;;;4993065;28;20318;-46
2022/09/06 11:18:26;;;;;;;0.30;0.30;;;24.50;65.30;;;;;;5005401;28;19930;-39
2022/09/06 11:21:12;;;;;;;0.47;0.40;;;24.50;65.60;;;;;;5008944;28;20443;-40
2022/09/06 11:23:57;;;;;;;0.20;0.20;;;24.50;65.60;;;;;;4992950;28;20704;-42
2022/09/06 11:26:39;;;;;;;0.40;0.40;;;24.40;65.60;;;;;;5012105;27;20132;-42
2022/09/06 11:29:07;;;;;;;0.40;0.30;;;24.40;65.60;;;;;;4991716;28;20049;-48
2022/09/06 11:31:34;;;;;;;0.40;0.30;;;24.40;65.70;;;;;;4991283;28;20054;-46
2022/09/06 11:34:10;;;;;;;0.93;0.50;;;24.40;65.70;;;;;;4992304;28;20052;-47
2022/09/06 11:36:55;;;;;;;0.50;0.32;;;24.50;65.70;;;;;;4996299;28;20038;-46
2022/09/06 11:39:29;;;;;;;1.00;0.40;;;24.50;65.70;;;;;;4994095;28;20039;-41
2022/09/06 11:41:55;;;;;;;0.50;0.30;;;24.40;65.70;;;;;;5009269;28;20031;-50
2022/09/06 11:44:50;;;;;;;0.50;0.30;;;24.40;65.70;;;;;;4979065;28;20397;-47
2022/09/06 11:47:44;;;;;;;0.57;0.30;;;24.50;65.70;;;;;;4993249;28;20103;-42
2022/09/06 11:50:24;;;;;;;0.40;0.40;;;24.40;65.70;;;;;;4993016;28;20565;-44
2022/09/06 11:53:05;;;;;;;0.30;0.30;;;24.50;65.70;;;;;;4976715;28;20183;-46
2022/09/06 11:55:34;;;;;;;0.47;0.40;;;24.40;66.10;;;;;;4996376;28;20562;-43
2022/09/06 11:58:00;;;;;;;0.45;0.28;;;24.40;65.90;;;;;;4995767;28;20459;-50
2022/09/06 12:00:26;;;;;;;0.63;0.30;;;24.40;66.30;;;;;;4998438;28;20045;-51
2022/09/06 12:02:51;;;;;;;2.05;0.40;;;24.40;66.00;;;;;;4996328;28;20048;-39
2022/09/06 12:05:18;;;;;;;0.60;0.30;;;24.40;66.00;;;;;;4999717;28;20578;-54
2022/09/06 12:08:21;;;;;;;1.65;0.30;;;24.40;66.30;;;;;;4997327;28;20158;-43
2022/09/06 12:10:57;;;;;;;0.25;0.25;;;24.40;65.90;;;;;;5007215;28;20030;-51
2022/09/06 12:13:39;;;;;;;0.52;0.30;;;24.40;66.10;;;;;;4998531;28;20054;-42
2022/09/06 12:16:05;;;;;;;0.77;0.30;;;24.40;66.30;;;;;;4997297;28;20094;-46
2022/09/06 12:18:46;;;;;;;0.57;0.40;;;24.40;66.10;;;;;;4996068;28;20034;-51
2022/09/06 12:21:38;;;;;;;0.30;0.20;;;24.50;66.00;;;;;;4996367;28;20134;-46
2022/09/06 12:24:08;;;;;;;0.52;0.30;;;24.50;66.00;;;;;;5002038;28;20589;-42
2022/09/06 12:26:51;;;;;;;0.50;0.38;;;24.50;65.90;;;;;;4995199;28;20042;-42
2022/09/06 12:29:24;;;;;;;1.45;0.35;;;24.50;65.70;;;;;;4984061;28;20049;-52
2022/09/06 12:32:00;;;;;;;0.40;0.27;;;24.60;65.80;;;;;;4985465;28;20087;-40
2022/09/06 12:34:30;;;;;;;0.15;0.15;;;24.60;65.70;;;;;;5016746;28;20060;-56
2022/09/06 12:37:00;;;;;;;0.43;0.43;;;24.60;65.60;;;;;;4996181;28;20042;-45
2022/09/06 12:39:25;;;;;;;0.30;0.20;;;24.60;65.60;;;;;;4993615;28;20683;-47
2022/09/06 12:42:04;;;;;;;0.52;0.30;;;24.60;65.60;;;;;;4994749;28;20073;-49
2022/09/06 12:44:37;;;;;;;0.40;0.20;;;24.60;65.50;;;;;;4998155;28;20045;-41
2022/09/06 12:47:24;;;;;;;0.30;0.20;;;24.60;65.50;;;;;;4995603;28;20049;-54
2022/09/06 12:50:16;;;;;;;1.65;0.22;;;24.60;65.50;;;;;;4996802;28;20042;-37
2022/09/06 12:52:55;;;;;;;0.30;0.30;;;24.60;65.40;;;;;;4993763;28;20065;-45
2022/09/06 12:55:33;;;;;;;0.50;0.22;;;24.60;65.50;;;;;;4996535;28;20037;-21
2022/09/06 12:58:10;;;;;;;0.60;0.47;;;24.60;65.40;;;;;;5001870;28;20034;-21
2022/09/06 13:01:03;;;;;;;0.20;0.20;;;24.60;65.50;;;;;;4996430;28;20034;-21
2022/09/06 13:03:34;;;;;;;0.40;0.30;;;24.60;65.50;;;;;;4992495;28;20045;-21